Terminal Aerodrome Forecast
Issued by NWS Milwaukee/Sullivan, WI

Home | Current Version | Previous Version | Text Only | Print | Product List | Glossary On
Versions: 1 2 3 4 5 6 7 8 9 10 11 12 13 14 15 16 17 18 19 20 21 22 23
000
FTUS43 KMKX 270520
TAFMSN
TAF
KMSN 270520Z 2706/2806 34007KT P6SM VCSH OVC008
     FM270700 33007KT P6SM RA OVC008
     FM271200 30009KT 4SM -SHRA BR OVC008
     FM271700 27011G21KT P6SM OVC015
     FM271900 27011G20KT P6SM OVC020
     FM280200 26006KT P6SM SCT030=

USA.gov is the U.S. government's official web portal to all federal, state and local government web resources and services.